createdAt,value
2018-08-31T00:00:50.741Z,566.7
2018-08-31T00:01:53.172Z,566.7
2018-08-31T00:02:55.605Z,566.9
2018-08-31T00:03:58.032Z,566.7
2018-08-31T00:05:00.471Z,566.9
2018-08-31T00:06:02.909Z,567
2018-08-31T00:07:05.336Z,566.8
2018-08-31T00:08:07.774Z,567
2018-08-31T00:09:10.249Z,567.4
2018-08-31T00:10:12.681Z,567.1
2018-08-31T00:11:15.119Z,567.3
2018-08-31T00:12:17.563Z,567.1
2018-08-31T00:13:19.999Z,567.1
2018-08-31T00:14:22.426Z,567.6
2018-08-31T00:15:24.850Z,567.9
2018-08-31T00:16:27.280Z,568.3
2018-08-31T00:17:29.724Z,568.5
2018-08-31T00:18:32.151Z,569.2
2018-08-31T00:19:34.600Z,569.5
2018-08-31T00:20:37.046Z,570
2018-08-31T00:21:39.493Z,570.2
2018-08-31T00:22:41.914Z,570.5
2018-08-31T00:23:44.356Z,570.2
2018-08-31T00:24:46.814Z,570.4
2018-08-31T00:25:48.975Z,570.7
2018-08-31T00:26:51.406Z,570.4
2018-08-31T00:27:53.867Z,570.6
2018-08-31T00:28:56.311Z,569.9
2018-08-31T00:29:58.744Z,570.1
2018-08-31T00:31:01.173Z,570
2018-08-31T00:32:03.601Z,570.3
2018-08-31T00:33:05.761Z,570.7
2018-08-31T00:34:08.208Z,570.6
2018-08-31T00:35:10.641Z,571
2018-08-31T00:36:13.076Z,571.1
2018-08-31T00:37:15.514Z,570.9
2018-08-31T00:38:17.945Z,571.1
2018-08-31T00:39:20.383Z,570.9
2018-08-31T00:40:22.803Z,571
2018-08-31T00:41:25.235Z,570.8
2018-08-31T00:42:27.659Z,570.8
2018-08-31T00:43:29.824Z,570.7
2018-08-31T00:44:32.268Z,570.8
2018-08-31T00:45:34.704Z,570.9
2018-08-31T00:46:37.155Z,570.9
2018-08-31T00:47:39.589Z,570.6
2018-08-31T00:48:42.016Z,570.6
2018-08-31T00:49:44.444Z,570.5
2018-08-31T00:50:46.885Z,570.3
2018-08-31T00:51:49.062Z,570.8
2018-08-31T00:52:51.521Z,570.3
2018-08-31T00:53:53.683Z,570.2
2018-08-31T00:54:55.850Z,570.1
2018-08-31T00:55:58.272Z,569.6
2018-08-31T00:57:00.424Z,569.4
2018-08-31T00:58:02.856Z,569.6
2018-08-31T00:59:05.296Z,569.9
2018-08-31T01:00:07.464Z,570.3
2018-08-31T01:01:09.900Z,570.2
2018-08-31T01:02:12.324Z,570.2
2018-08-31T01:03:14.814Z,570.6
2018-08-31T01:04:17.251Z,570.8
2018-08-31T01:05:19.678Z,570.7
2018-08-31T01:06:22.109Z,570.5
2018-08-31T01:07:24.535Z,570.5
2018-08-31T01:08:26.985Z,570.7
2018-08-31T01:09:29.431Z,570.6
2018-08-31T01:10:31.875Z,570.4
2018-08-31T01:11:34.327Z,570.5
2018-08-31T01:12:36.462Z,570.4
2018-08-31T01:13:38.895Z,570.6
2018-08-31T01:14:41.333Z,570.5
2018-08-31T01:15:43.766Z,570.7
2018-08-31T01:16:46.203Z,570.5
2018-08-31T01:17:48.631Z,570.6
2018-08-31T01:18:50.511Z,570.4
2018-08-31T01:19:52.939Z,570.3
2018-08-31T01:20:55.095Z,570
2018-08-31T01:21:57.535Z,570.6
2018-08-31T01:22:59.688Z,570.8
2018-08-31T01:24:02.130Z,570.5
2018-08-31T01:25:04.589Z,570.9
2018-08-31T01:26:06.793Z,571.1
2018-08-31T01:27:09.226Z,571.2
2018-08-31T01:28:11.664Z,571
2018-08-31T01:29:14.105Z,571.4
2018-08-31T01:30:16.572Z,572
2018-08-31T01:31:19.019Z,572
2018-08-31T01:32:21.453Z,572.1
2018-08-31T01:33:23.895Z,572.7
2018-08-31T01:34:26.324Z,572.8
2018-08-31T01:35:28.763Z,572.9
2018-08-31T01:36:31.194Z,572.7
2018-08-31T01:37:33.357Z,573.1
2018-08-31T01:38:35.534Z,573.1
2018-08-31T01:39:37.981Z,573
2018-08-31T01:40:40.405Z,573.4
2018-08-31T01:41:42.582Z,574
2018-08-31T01:42:45.023Z,574.2
2018-08-31T01:43:47.459Z,574.5
2018-08-31T01:44:49.880Z,575
2018-08-31T01:45:52.323Z,575.4
2018-08-31T01:46:54.760Z,575.4
2018-08-31T01:47:56.912Z,575.7
2018-08-31T01:48:59.345Z,575.8
2018-08-31T01:50:01.782Z,575.3
2018-08-31T01:51:04.201Z,575.4
2018-08-31T01:52:06.632Z,575.2
2018-08-31T01:53:09.056Z,575.6
2018-08-31T01:54:11.484Z,575
2018-08-31T01:55:13.666Z,574.8
2018-08-31T01:56:16.116Z,574.7
2018-08-31T01:57:18.280Z,574.5
2018-08-31T01:58:20.716Z,574.3
2018-08-31T01:59:23.159Z,574.4
2018-08-31T02:00:25.613Z,574.3
2018-08-31T02:01:28.053Z,574.6
2018-08-31T02:02:30.484Z,574.7
2018-08-31T02:03:32.925Z,574.7
2018-08-31T02:04:35.350Z,574.9
2018-08-31T02:05:37.773Z,575.1
2018-08-31T02:06:40.203Z,575
2018-08-31T02:07:42.354Z,574.7
2018-08-31T02:08:44.781Z,574.5
2018-08-31T02:09:47.212Z,574.6
2018-08-31T02:10:49.654Z,574.4
2018-08-31T02:11:52.100Z,574.2
2018-08-31T02:12:54.535Z,573.9
2018-08-31T02:13:56.958Z,573.4
2018-08-31T02:14:59.392Z,573.6
2018-08-31T02:16:01.826Z,573.7
2018-08-31T02:17:04.267Z,573.9
2018-08-31T02:18:06.695Z,573.5
2018-08-31T02:19:09.131Z,573.7
2018-08-31T02:20:11.301Z,573.5
2018-08-31T02:21:13.740Z,574.2
2018-08-31T02:22:16.172Z,574.1
2018-08-31T02:23:18.605Z,573.8
2018-08-31T02:24:21.034Z,574.2
2018-08-31T02:25:23.456Z,573.7
2018-08-31T02:26:25.615Z,573.7
2018-08-31T02:27:28.055Z,573.7
2018-08-31T02:28:30.496Z,573.6
2018-08-31T02:29:32.942Z,573.3
2018-08-31T02:30:35.371Z,573.7
2018-08-31T02:31:37.796Z,573.4
2018-08-31T02:32:39.952Z,573
2018-08-31T02:33:42.408Z,573.8
2018-08-31T02:34:44.866Z,573.8
2018-08-31T02:35:47.029Z,573.9
2018-08-31T02:36:49.465Z,574
2018-08-31T02:37:51.909Z,573.5
2018-08-31T02:38:54.344Z,573.8
2018-08-31T02:39:56.797Z,573.6
2018-08-31T02:40:59.230Z,573.6
2018-08-31T02:42:01.674Z,573.5
2018-08-31T02:43:04.111Z,573.3
2018-08-31T02:44:06.545Z,573.5
2018-08-31T02:45:08.973Z,573.8
2018-08-31T02:46:11.412Z,573.5
2018-08-31T02:47:13.573Z,573.4
2018-08-31T02:48:16.021Z,573.4
2018-08-31T02:49:18.447Z,573.3
2018-08-31T02:50:20.902Z,573.5
2018-08-31T02:51:23.344Z,573.5
2018-08-31T02:52:25.798Z,573.8
2018-08-31T02:53:28.237Z,573.8
2018-08-31T02:54:30.680Z,573.8
2018-08-31T02:55:33.105Z,573.7
2018-08-31T02:56:35.542Z,573.9
2018-08-31T02:57:37.710Z,573.9
2018-08-31T02:58:40.151Z,574.2
2018-08-31T02:59:42.618Z,574.4
2018-08-31T03:00:45.039Z,574.5
2018-08-31T03:01:47.465Z,574.2
2018-08-31T03:02:49.910Z,574.3
2018-08-31T03:03:52.355Z,574.2
2018-08-31T03:04:54.520Z,573.8
2018-08-31T03:05:56.675Z,573.7
2018-08-31T03:06:59.096Z,573.2
2018-08-31T03:08:01.533Z,573.3
2018-08-31T03:09:03.956Z,573.1
2018-08-31T03:10:06.395Z,572.8
2018-08-31T03:11:08.884Z,573
2018-08-31T03:12:11.325Z,573.2
2018-08-31T03:13:13.767Z,573.4
2018-08-31T03:14:16.204Z,573.7
2018-08-31T03:15:18.643Z,573.9
2018-08-31T03:16:21.065Z,574.1
2018-08-31T03:17:23.260Z,574.4
2018-08-31T03:18:25.426Z,574.6
2018-08-31T03:19:27.854Z,574.4
2018-08-31T03:20:30.283Z,574.5
2018-08-31T03:21:32.719Z,574.3
2018-08-31T03:22:35.165Z,573.9
2018-08-31T03:23:37.330Z,573.7
2018-08-31T03:24:39.497Z,573.2
2018-08-31T03:25:41.917Z,573.6
2018-08-31T03:26:44.366Z,573.8
2018-08-31T03:27:46.796Z,573.8
2018-08-31T03:28:49.279Z,573.7
2018-08-31T03:29:51.725Z,573.9
2018-08-31T03:30:54.155Z,573.7
2018-08-31T03:31:56.322Z,573.7
2018-08-31T03:32:58.756Z,573.9
2018-08-31T03:34:01.202Z,573.7
2018-08-31T03:35:03.661Z,573.6
2018-08-31T03:36:06.095Z,573.4
2018-08-31T03:37:09.030Z,573.2
2018-08-31T03:38:11.485Z,573.2
2018-08-31T03:39:13.941Z,573.5
2018-08-31T03:40:16.396Z,573.4
2018-08-31T03:41:18.853Z,573.6
2018-08-31T03:42:21.335Z,573.5
2018-08-31T03:43:23.495Z,573.7
2018-08-31T03:44:25.937Z,573.7
2018-08-31T03:45:28.382Z,573.9
2018-08-31T03:46:30.836Z,574.1
2018-08-31T03:47:33.296Z,574.3
2018-08-31T03:48:35.726Z,574
2018-08-31T03:49:38.156Z,574.9
2018-08-31T03:50:40.619Z,575
2018-08-31T03:51:43.048Z,575.4
2018-08-31T03:52:45.476Z,575.4
2018-08-31T03:53:47.914Z,575.3
2018-08-31T03:54:50.357Z,575.8
2018-08-31T03:55:52.791Z,575.3
2018-08-31T03:56:55.208Z,575.7
2018-08-31T03:57:57.653Z,575.6
2018-08-31T03:58:59.812Z,575.6
2018-08-31T04:00:02.231Z,575.8
2018-08-31T04:01:04.657Z,575.5
2018-08-31T04:02:07.110Z,575.5
2018-08-31T04:03:09.540Z,575.5
2018-08-31T04:04:11.690Z,575.6
2018-08-31T04:05:14.115Z,575.4
2018-08-31T04:06:16.545Z,575.8
2018-08-31T04:07:18.995Z,576.2
2018-08-31T04:08:21.429Z,576.7
2018-08-31T04:09:23.850Z,576.9
2018-08-31T04:10:26.327Z,576.8
2018-08-31T04:11:28.784Z,576.7
2018-08-31T04:12:31.217Z,576.6
2018-08-31T04:13:33.650Z,576.8
2018-08-31T04:14:35.814Z,576.8
2018-08-31T04:15:38.228Z,577.1
2018-08-31T04:16:40.682Z,577.1
2018-08-31T04:17:43.116Z,577.1
2018-08-31T04:18:45.556Z,577.1
2018-08-31T04:19:47.994Z,577.1
2018-08-31T04:20:50.418Z,577.5
2018-08-31T04:21:52.874Z,577.1
2018-08-31T04:22:55.308Z,577.4
2018-08-31T04:23:57.733Z,577.4
2018-08-31T04:25:00.166Z,577.8
2018-08-31T04:26:02.603Z,578.3
2018-08-31T04:27:04.465Z,578.3
2018-08-31T04:28:06.632Z,578.4
2018-08-31T04:29:09.068Z,578.5
2018-08-31T04:30:11.493Z,578.2
2018-08-31T04:31:13.660Z,578.4
2018-08-31T04:32:16.093Z,578.5
2018-08-31T04:33:17.981Z,578.3
2018-08-31T04:34:20.156Z,578.2
2018-08-31T04:35:22.594Z,578.1
2018-08-31T04:36:24.765Z,578
2018-08-31T04:37:27.210Z,578.3
2018-08-31T04:38:29.367Z,578
2018-08-31T04:39:31.535Z,577.6
2018-08-31T04:40:33.984Z,577.8
2018-08-31T04:41:36.405Z,577.5
2018-08-31T04:42:38.919Z,577.2
2018-08-31T04:43:41.075Z,577.3
2018-08-31T04:44:43.245Z,576.6
2018-08-31T04:45:45.405Z,577.2
2018-08-31T04:46:47.848Z,576.7
2018-08-31T04:47:50.297Z,577.4
2018-08-31T04:48:52.187Z,577.6
2018-08-31T04:49:54.626Z,577.9
2018-08-31T04:50:56.775Z,577.7
2018-08-31T04:51:58.916Z,577.9
2018-08-31T04:53:01.364Z,577.7
2018-08-31T04:54:03.525Z,577.8
2018-08-31T04:55:05.964Z,577.7
2018-08-31T04:56:08.124Z,577.6
2018-08-31T04:57:10.308Z,577.3
2018-08-31T04:58:12.750Z,577.2
2018-08-31T04:59:15.190Z,577.4
2018-08-31T05:00:17.614Z,577.4
2018-08-31T05:01:20.057Z,577.2
2018-08-31T05:02:22.224Z,577.4
2018-08-31T05:03:24.664Z,577.6
2018-08-31T05:04:27.105Z,578.1
2018-08-31T05:05:29.555Z,577.6
2018-08-31T05:06:31.712Z,578.2
2018-08-31T05:07:34.144Z,578.5
2018-08-31T05:08:36.578Z,578.7
2018-08-31T05:09:39.014Z,578.5
2018-08-31T05:10:41.480Z,579.5
2018-08-31T05:11:43.906Z,579.7
2018-08-31T05:12:46.064Z,580
2018-08-31T05:13:48.514Z,579.8
2018-08-31T05:14:50.947Z,580.3
2018-08-31T05:15:53.551Z,580.2
2018-08-31T05:16:55.971Z,579.9
2018-08-31T05:17:58.404Z,580.1
2018-08-31T05:19:00.828Z,579.6
2018-08-31T05:20:03.276Z,579.7
2018-08-31T05:21:05.693Z,579.5
2018-08-31T05:22:08.131Z,579
2018-08-31T05:23:11.014Z,579
2018-08-31T05:24:13.445Z,579.2
2018-08-31T05:25:15.897Z,579
2018-08-31T05:26:18.334Z,579.2
2018-08-31T05:27:20.774Z,579.3
2018-08-31T05:28:23.493Z,579.8
2018-08-31T05:29:25.644Z,580.1
2018-08-31T05:30:28.083Z,579.8
2018-08-31T05:31:30.520Z,579.8
2018-08-31T05:32:32.686Z,579.6
2018-08-31T05:33:35.120Z,579.6
2018-08-31T05:34:37.560Z,579.3
2018-08-31T05:35:39.995Z,578.8
2018-08-31T05:36:42.426Z,578.7
2018-08-31T05:37:44.856Z,578.4
2018-08-31T05:38:47.289Z,578.5
2018-08-31T05:39:49.735Z,578.3
2018-08-31T05:40:52.180Z,578.3
2018-08-31T05:41:54.621Z,577.9
2018-08-31T05:42:56.777Z,578
2018-08-31T05:43:59.213Z,578.2
2018-08-31T05:45:01.644Z,577.5
2018-08-31T05:46:03.804Z,577.7
2018-08-31T05:47:05.972Z,577.7
2018-08-31T05:48:08.412Z,577.6
2018-08-31T05:49:10.848Z,577.3
2018-08-31T05:50:13.294Z,576.9
2018-08-31T05:51:15.740Z,576.5
2018-08-31T05:52:18.195Z,576.3
2018-08-31T05:53:20.697Z,575.9
2018-08-31T05:54:22.859Z,575.5
2018-08-31T05:55:25.316Z,575.3
2018-08-31T05:56:27.745Z,574.6
2018-08-31T05:57:30.192Z,574.8
2018-08-31T05:58:32.640Z,574.2
2018-08-31T05:59:35.100Z,573.9
2018-08-31T06:00:37.553Z,574.2
2018-08-31T06:01:39.761Z,573.7
2018-08-31T06:02:42.207Z,573.8
2018-08-31T06:03:44.640Z,573.8
2018-08-31T06:04:46.804Z,574
2018-08-31T06:05:48.968Z,574.1
2018-08-31T06:06:51.407Z,575.1
2018-08-31T06:07:53.835Z,575
2018-08-31T06:08:56.261Z,575
2018-08-31T06:09:58.687Z,575.4
2018-08-31T06:11:01.133Z,576.1
2018-08-31T06:12:04.109Z,575.9
2018-08-31T06:13:06.629Z,576.1
2018-08-31T06:14:09.057Z,576.3
2018-08-31T06:15:11.486Z,576.4
2018-08-31T06:16:13.926Z,576.2
2018-08-31T06:17:16.354Z,576.2
2018-08-31T06:18:18.790Z,576
2018-08-31T06:19:21.245Z,576.1
2018-08-31T06:20:23.679Z,576.4
2018-08-31T06:21:26.121Z,576
2018-08-31T06:22:28.554Z,576.2
2018-08-31T06:23:31.013Z,576.4
2018-08-31T06:24:33.443Z,576.7
2018-08-31T06:25:35.874Z,576.3
2018-08-31T06:26:38.315Z,576.2
2018-08-31T06:27:40.754Z,576.3
2018-08-31T06:28:43.185Z,576.4
2018-08-31T06:29:45.629Z,575.8
2018-08-31T06:30:48.060Z,575.8
2018-08-31T06:31:50.493Z,575.5
2018-08-31T06:32:52.915Z,575.7
2018-08-31T06:33:55.515Z,575.8
2018-08-31T06:34:58.103Z,575
2018-08-31T06:36:00.540Z,574.9
2018-08-31T06:37:02.986Z,575.3
2018-08-31T06:38:05.421Z,575.1
2018-08-31T06:39:07.604Z,574.6
2018-08-31T06:40:10.041Z,575.2
2018-08-31T06:41:12.495Z,575
2018-08-31T06:42:14.943Z,574.9
2018-08-31T06:43:17.108Z,574.5
2018-08-31T06:44:19.290Z,574.5
2018-08-31T06:45:21.725Z,574
2018-08-31T06:46:23.896Z,573.7
2018-08-31T06:47:26.326Z,573.4
2018-08-31T06:48:28.507Z,573.5
2018-08-31T06:49:30.942Z,573.2
2018-08-31T06:50:33.394Z,573.1
2018-08-31T06:51:36.635Z,572.7
2018-08-31T06:52:39.066Z,572.6
2018-08-31T06:53:41.502Z,572.4
2018-08-31T06:54:43.942Z,572.7
2018-08-31T06:55:46.097Z,572.4
2018-08-31T06:56:48.523Z,572.4
2018-08-31T06:57:51.176Z,572.2
2018-08-31T06:58:53.606Z,572.4
2018-08-31T06:59:56.032Z,572.5
2018-08-31T07:00:58.460Z,571.9
2018-08-31T07:02:00.912Z,571.8
2018-08-31T07:03:03.349Z,571.9
2018-08-31T07:04:05.789Z,571.8
2018-08-31T07:05:08.226Z,571.6
2018-08-31T07:06:10.666Z,571.8
2018-08-31T07:07:13.115Z,571.5
2018-08-31T07:08:15.560Z,571.3
2018-08-31T07:09:17.710Z,571.4
2018-08-31T07:10:20.142Z,571.4
2018-08-31T07:11:22.563Z,571.7
2018-08-31T07:12:25.281Z,572.2
2018-08-31T07:13:27.719Z,572.1
2018-08-31T07:14:30.157Z,572.3
2018-08-31T07:15:32.309Z,572.6
2018-08-31T07:16:34.748Z,572.7
2018-08-31T07:17:37.173Z,572.7
2018-08-31T07:18:39.332Z,572.9
2018-08-31T07:19:41.966Z,573
2018-08-31T07:20:44.415Z,573.2
2018-08-31T07:21:46.845Z,573
2018-08-31T07:22:49.302Z,573.2
2018-08-31T07:23:51.747Z,573.3
2018-08-31T07:24:54.184Z,573.3
2018-08-31T07:25:56.616Z,573.4
2018-08-31T07:26:59.372Z,573.3
2018-08-31T07:28:01.826Z,573
2018-08-31T07:29:04.255Z,572.6
2018-08-31T07:30:06.689Z,572.6
2018-08-31T07:31:09.126Z,572.6
2018-08-31T07:32:11.876Z,572.2
2018-08-31T07:33:14.042Z,572.1
2018-08-31T07:34:16.475Z,572.1
2018-08-31T07:35:18.646Z,572.1
2018-08-31T07:36:21.580Z,571.9
2018-08-31T07:37:24.106Z,572.2
2018-08-31T07:38:26.541Z,571.5
2018-08-31T07:39:28.990Z,571.3
2018-08-31T07:40:31.428Z,571.7
2018-08-31T07:41:33.869Z,571.2
2018-08-31T07:42:36.322Z,571.7
2018-08-31T07:43:38.763Z,571.5
2018-08-31T07:44:41.194Z,571.5
2018-08-31T07:45:43.644Z,571.7
2018-08-31T07:46:46.076Z,571.6
2018-08-31T07:47:48.960Z,572
2018-08-31T07:48:51.424Z,572
2018-08-31T07:49:53.870Z,572.4
2018-08-31T07:50:56.325Z,572
2018-08-31T07:51:58.475Z,572.3
2018-08-31T07:53:00.934Z,572
2018-08-31T07:54:03.440Z,571.9
2018-08-31T07:55:05.894Z,571.6
2018-08-31T07:56:08.325Z,571.7
2018-08-31T07:57:10.766Z,571.7
2018-08-31T07:58:13.206Z,571.5
2018-08-31T07:59:15.664Z,571.2
2018-08-31T08:00:18.106Z,571.3
2018-08-31T08:01:20.539Z,571.2
2018-08-31T08:02:22.720Z,571.4
2018-08-31T08:03:25.155Z,571.3
2018-08-31T08:04:27.594Z,571.2
2018-08-31T08:05:29.591Z,571.2
2018-08-31T08:06:31.802Z,570.9
2018-08-31T08:07:34.892Z,571.2
2018-08-31T08:08:37.385Z,571.1
2018-08-31T08:09:39.810Z,571.3
2018-08-31T08:10:41.682Z,571
2018-08-31T08:11:44.119Z,570.9
2018-08-31T08:12:46.541Z,571.1
2018-08-31T08:13:48.990Z,570.8
2018-08-31T08:14:52.267Z,570.1
2018-08-31T08:15:54.755Z,570.1
2018-08-31T08:16:57.218Z,570.2
2018-08-31T08:17:59.653Z,570
2018-08-31T08:19:02.093Z,570
2018-08-31T08:20:04.520Z,570.1
2018-08-31T08:21:06.962Z,570
2018-08-31T08:22:09.400Z,570.3
2018-08-31T08:23:11.825Z,570.1
2018-08-31T08:24:14.247Z,570.2
2018-08-31T08:25:16.679Z,570.1
2018-08-31T08:26:19.104Z,569.9
2018-08-31T08:27:21.556Z,569.7
2018-08-31T08:28:24.709Z,569.5
2018-08-31T08:29:26.928Z,569.5
2018-08-31T08:30:29.369Z,569.8
2018-08-31T08:31:31.794Z,569.6
2018-08-31T08:32:34.221Z,569.3
2018-08-31T08:33:36.384Z,569.5
2018-08-31T08:34:38.549Z,569.2
2018-08-31T08:35:40.986Z,569
2018-08-31T08:36:43.416Z,569
2018-08-31T08:37:45.844Z,569.1
2018-08-31T08:38:48.293Z,568.9
2018-08-31T08:39:50.720Z,568.8
2018-08-31T08:40:53.156Z,568.6
2018-08-31T08:41:55.685Z,568.7
2018-08-31T08:42:58.116Z,568.8
2018-08-31T08:44:00.547Z,569
2018-08-31T08:45:02.721Z,568.8
2018-08-31T08:46:05.169Z,569.1
2018-08-31T08:47:07.610Z,569
2018-08-31T08:48:10.389Z,568.7
2018-08-31T08:49:12.832Z,568.7
2018-08-31T08:50:15.268Z,568.9
2018-08-31T08:51:17.700Z,568.5
2018-08-31T08:52:20.145Z,568.9
2018-08-31T08:53:22.595Z,569.1
2018-08-31T08:54:25.025Z,569.4
2018-08-31T08:55:27.456Z,569.2
2018-08-31T08:56:29.634Z,569.5
2018-08-31T08:57:32.082Z,569.9
2018-08-31T08:58:34.524Z,570.1
2018-08-31T08:59:36.673Z,569.9
2018-08-31T09:00:39.100Z,569.8
2018-08-31T09:01:41.535Z,570.4
2018-08-31T09:02:43.984Z,570.4
2018-08-31T09:03:46.165Z,570.3
2018-08-31T09:04:48.605Z,570.5
2018-08-31T09:05:50.822Z,570.3
2018-08-31T09:06:53.342Z,569.9
2018-08-31T09:07:55.779Z,570
2018-08-31T09:08:58.204Z,570.1
2018-08-31T09:10:00.637Z,570.3
2018-08-31T09:11:02.784Z,570.4
2018-08-31T09:12:05.382Z,570.3
2018-08-31T09:13:07.536Z,570.4
2018-08-31T09:14:09.985Z,570.4
2018-08-31T09:15:12.424Z,570.1
2018-08-31T09:16:14.854Z,570.1
2018-08-31T09:17:17.025Z,570.1
2018-08-31T09:18:19.656Z,570.3
2018-08-31T09:19:22.091Z,569.8
2018-08-31T09:20:25.160Z,570
2018-08-31T09:21:27.616Z,569.8
2018-08-31T09:22:30.068Z,570.2
2018-08-31T09:23:32.492Z,569.8
2018-08-31T09:24:35.194Z,570.5
2018-08-31T09:25:37.666Z,570.4
2018-08-31T09:26:40.128Z,570.4
2018-08-31T09:27:42.572Z,570.7
2018-08-31T09:28:45.019Z,570.6
2018-08-31T09:29:47.195Z,570.6
2018-08-31T09:30:49.636Z,571
2018-08-31T09:31:52.115Z,570.9
2018-08-31T09:32:54.548Z,571
2018-08-31T09:33:56.998Z,571.4
2018-08-31T09:34:59.458Z,571.2
2018-08-31T09:36:01.902Z,571.5
2018-08-31T09:37:04.334Z,571.3
2018-08-31T09:38:06.766Z,571.5
2018-08-31T09:39:08.929Z,571.2
2018-08-31T09:40:11.384Z,571.6
2018-08-31T09:41:13.824Z,571.4
2018-08-31T09:42:15.984Z,571.3
2018-08-31T09:43:18.457Z,571.4
2018-08-31T09:44:20.900Z,571.9
2018-08-31T09:45:23.346Z,571.6
2018-08-31T09:46:25.810Z,571.8
2018-08-31T09:47:28.251Z,571.6
2018-08-31T09:48:30.696Z,571.4
2018-08-31T09:49:33.065Z,571.4
2018-08-31T09:50:35.511Z,572.3
2018-08-31T09:51:37.940Z,571.7
2018-08-31T09:52:40.384Z,571.6
2018-08-31T09:53:42.835Z,571.4
2018-08-31T09:54:45.265Z,571.5
2018-08-31T09:55:47.724Z,571.3
2018-08-31T09:56:50.165Z,571.1
2018-08-31T09:57:52.330Z,571.1
2018-08-31T09:58:54.774Z,570.9
2018-08-31T09:59:57.215Z,570.4
2018-08-31T10:00:59.666Z,570.4
2018-08-31T10:02:02.124Z,570.1
2018-08-31T10:03:04.580Z,569.7
2018-08-31T10:04:07.011Z,569.9
2018-08-31T10:05:09.185Z,569.4
2018-08-31T10:06:11.623Z,569.6
2018-08-31T10:07:14.066Z,569.8
2018-08-31T10:08:16.502Z,569.7
2018-08-31T10:09:18.948Z,570.3
2018-08-31T10:10:21.388Z,570.3
2018-08-31T10:11:23.844Z,570.2
2018-08-31T10:12:26.278Z,570.6
2018-08-31T10:13:29.258Z,570.9
2018-08-31T10:14:31.688Z,570.2
2018-08-31T10:15:34.120Z,570.7
2018-08-31T10:16:36.588Z,571.1
2018-08-31T10:17:39.061Z,570.9
2018-08-31T10:18:41.694Z,570.6
2018-08-31T10:19:44.181Z,570.7
2018-08-31T10:20:46.615Z,570.9
2018-08-31T10:21:49.045Z,571
2018-08-31T10:22:51.472Z,571.1
2018-08-31T10:23:53.915Z,570.9
2018-08-31T10:24:56.340Z,570.8
2018-08-31T10:25:58.496Z,570.9
2018-08-31T10:27:00.958Z,571.1
2018-08-31T10:28:03.393Z,571
2018-08-31T10:29:05.824Z,570.9
2018-08-31T10:30:08.624Z,570.7
2018-08-31T10:31:10.715Z,570.6
2018-08-31T10:32:13.147Z,570.5
2018-08-31T10:33:15.574Z,570.8
2018-08-31T10:34:18.009Z,570.4
2018-08-31T10:35:20.449Z,570.2
2018-08-31T10:36:22.594Z,570.6
2018-08-31T10:37:25.023Z,570.3
2018-08-31T10:38:27.482Z,570
2018-08-31T10:39:29.925Z,570.3
2018-08-31T10:40:32.355Z,570.5
2018-08-31T10:41:34.795Z,570.2
2018-08-31T10:42:37.269Z,570.6
2018-08-31T10:43:39.707Z,570.3
2018-08-31T10:44:42.141Z,570.3
2018-08-31T10:45:44.579Z,570.3
2018-08-31T10:46:47.018Z,570
2018-08-31T10:47:49.446Z,570.3
2018-08-31T10:48:51.871Z,569.9
2018-08-31T10:49:54.045Z,570.1
2018-08-31T10:50:56.198Z,569.9
2018-08-31T10:51:58.632Z,570.2
2018-08-31T10:53:01.070Z,570.2
2018-08-31T10:54:03.513Z,570.3
2018-08-31T10:55:05.941Z,570.3
2018-08-31T10:56:08.376Z,569.9
2018-08-31T10:57:10.827Z,570.6
2018-08-31T10:58:13.253Z,570.4
2018-08-31T10:59:15.683Z,570.4
2018-08-31T11:00:18.138Z,570.3
2018-08-31T11:01:20.582Z,570.3
2018-08-31T11:02:23.030Z,570.1
2018-08-31T11:03:25.496Z,570.1
2018-08-31T11:04:27.946Z,569.7
2018-08-31T11:05:30.372Z,570.2
2018-08-31T11:06:32.796Z,569.9
2018-08-31T11:07:35.252Z,570.1
2018-08-31T11:08:37.696Z,570
2018-08-31T11:09:40.154Z,570.1
2018-08-31T11:10:42.593Z,570.1
2018-08-31T11:11:45.043Z,570.4
2018-08-31T11:12:48.387Z,570.3
2018-08-31T11:13:50.957Z,570.5
2018-08-31T11:14:53.403Z,570.3
2018-08-31T11:15:55.844Z,570.4
2018-08-31T11:16:58.297Z,570.4
2018-08-31T11:18:00.728Z,570.6
2018-08-31T11:19:03.123Z,570.4
2018-08-31T11:20:05.559Z,570.9
2018-08-31T11:21:07.992Z,570.5
2018-08-31T11:22:10.423Z,570.9
2018-08-31T11:23:12.855Z,570.4
2018-08-31T11:24:15.004Z,570.6
2018-08-31T11:25:17.433Z,570.8
2018-08-31T11:26:19.893Z,570.7
2018-08-31T11:27:22.320Z,570.7
2018-08-31T11:28:24.764Z,570.6
2018-08-31T11:29:27.205Z,570.3
2018-08-31T11:30:29.649Z,570.2
2018-08-31T11:31:31.832Z,570.5
2018-08-31T11:32:34.262Z,570.3
2018-08-31T11:33:36.443Z,570.3
2018-08-31T11:34:38.895Z,569.6
2018-08-31T11:35:41.332Z,570
2018-08-31T11:36:43.756Z,570.1
2018-08-31T11:37:46.196Z,569.6
2018-08-31T11:38:48.639Z,569.6
2018-08-31T11:39:51.087Z,569.5
2018-08-31T11:40:53.509Z,570
2018-08-31T11:41:55.934Z,569.7
2018-08-31T11:42:58.391Z,569.8
2018-08-31T11:44:00.820Z,569.9
2018-08-31T11:45:03.263Z,569.3
2018-08-31T11:46:05.420Z,569.7
2018-08-31T11:47:07.840Z,569.5
2018-08-31T11:48:09.985Z,569.7
2018-08-31T11:49:12.423Z,569.4
2018-08-31T11:50:14.857Z,569.6
2018-08-31T11:51:17.298Z,569.8
2018-08-31T11:52:19.732Z,569.7
2018-08-31T11:53:22.171Z,569.7
2018-08-31T11:54:24.618Z,569.5
2018-08-31T11:55:27.266Z,569.5
2018-08-31T11:56:29.709Z,569.6
2018-08-31T11:57:32.152Z,569.7
2018-08-31T11:58:34.590Z,569.8
2018-08-31T11:59:37.036Z,569.5
2018-08-31T12:00:39.495Z,569.7
2018-08-31T12:01:41.940Z,569.3
2018-08-31T12:02:44.372Z,569.7
2018-08-31T12:03:46.818Z,569.6
2018-08-31T12:04:49.252Z,569.7
2018-08-31T12:05:51.681Z,569.6
2018-08-31T12:06:54.136Z,569.8
2018-08-31T12:07:57.470Z,569.8
2018-08-31T12:08:59.994Z,569.9
2018-08-31T12:10:02.439Z,570
2018-08-31T12:11:04.890Z,569.9
2018-08-31T12:12:07.044Z,570
2018-08-31T12:13:09.476Z,570
2018-08-31T12:14:11.917Z,569.9
2018-08-31T12:15:14.348Z,570.2
2018-08-31T12:16:16.786Z,570.5
2018-08-31T12:17:19.244Z,570.8
2018-08-31T12:18:21.731Z,570.8
2018-08-31T12:19:24.169Z,570.8
2018-08-31T12:20:26.324Z,570.9
2018-08-31T12:21:28.778Z,571.1
2018-08-31T12:22:31.227Z,571.7
2018-08-31T12:23:33.654Z,571.5
2018-08-31T12:24:36.090Z,571.7
2018-08-31T12:25:38.250Z,571.3
2018-08-31T12:26:40.676Z,571.6
2018-08-31T12:27:42.838Z,571.7
2018-08-31T12:28:45.015Z,571.9
2018-08-31T12:29:47.466Z,571.7
2018-08-31T12:30:49.893Z,571.9
2018-08-31T12:31:52.344Z,572.1
2018-08-31T12:32:54.784Z,571.9
2018-08-31T12:33:57.207Z,572.5
2018-08-31T12:34:59.643Z,572.2
2018-08-31T12:36:01.902Z,572.9
2018-08-31T12:37:04.384Z,573.2
2018-08-31T12:38:06.549Z,573.5
2018-08-31T12:39:08.971Z,573.1
2018-08-31T12:40:11.153Z,573.3
2018-08-31T12:41:13.585Z,573.3
2018-08-31T12:42:16.050Z,573
2018-08-31T12:43:18.493Z,572.8
2018-08-31T12:44:21.429Z,572.8
2018-08-31T12:45:23.856Z,572.5
2018-08-31T12:46:26.295Z,572.6
2018-08-31T12:47:28.743Z,572.5
2018-08-31T12:48:31.172Z,572.6
2018-08-31T12:49:33.613Z,572.2
2018-08-31T12:50:36.044Z,572.5
2018-08-31T12:51:38.511Z,572.8
2018-08-31T12:52:40.944Z,573.2
2018-08-31T12:53:43.396Z,573
2018-08-31T12:54:45.834Z,573
2018-08-31T12:55:48.278Z,573
2018-08-31T12:56:50.737Z,573.5
2018-08-31T12:57:53.192Z,573.4
2018-08-31T12:58:55.361Z,573.3
2018-08-31T12:59:57.892Z,573.4
2018-08-31T13:00:59.981Z,572.9
2018-08-31T13:02:02.417Z,573.3
2018-08-31T13:03:04.848Z,573
2018-08-31T13:04:07.029Z,572.9
2018-08-31T13:05:09.500Z,573.5
2018-08-31T13:06:11.939Z,573.1
2018-08-31T13:07:14.378Z,573.5
2018-08-31T13:08:16.820Z,573.4
2018-08-31T13:09:19.245Z,573.9
2018-08-31T13:10:21.679Z,573.5
2018-08-31T13:11:24.157Z,573.3
2018-08-31T13:12:26.584Z,573.7
2018-08-31T13:13:29.012Z,574.1
2018-08-31T13:14:31.167Z,574.1
2018-08-31T13:15:33.346Z,574.5
2018-08-31T13:16:35.774Z,574.4
2018-08-31T13:17:38.218Z,574.6
2018-08-31T13:18:40.667Z,574.8
2018-08-31T13:19:43.123Z,574.1
2018-08-31T13:20:45.264Z,574.4
2018-08-31T13:21:47.436Z,574.2
2018-08-31T13:22:49.622Z,574.2
2018-08-31T13:23:52.069Z,573.8
2018-08-31T13:24:54.495Z,573.9
2018-08-31T13:25:56.928Z,573.8
2018-08-31T13:26:59.354Z,573.8
2018-08-31T13:28:01.504Z,573.7
2018-08-31T13:29:03.946Z,574.3